Triathlon Ales 2015 Distance M




























































Clt Nom Prénom Nat. Licence Dossard Clt Cat Cat Sexe Temps Natation Clt Nat Chgt Nat Clt Chgt Nat Vélo Clt Vélo Chgt Vélo Clt Chgt Vélo Course Clt Course Club
1 LANDREAU Antony FRA A17889C 103 1 VE1 M 02:16:51 00:17:57 3 00:00:41 8 01:21:18 1 00:00:30 5 00:36:27 1 VITROLLES TRIATHLON
2 JESZENSZKI Donat HUN A71679C0260041MS2HUN 1 1 SE2 M 02:18:41 00:17:59 4 00:00:47 10 01:22:52 2 00:00:29 2 00:36:36 2 AC ORANGE TRI
3 MEISTER Thierry FRA A18184C 84 2 VE1 M 02:22:43 00:18:42 6 00:00:30 4 01:23:30 4 00:00:40 14 00:39:22 8 TRI CLUB ISLE SUR LA SORGUE
4 VLAEMYNCK Julien FRA 0140390MS3FR1 139 1 SE3 M 02:23:26 00:17:11 1 00:00:38 7 01:27:56 17 00:00:36 9 00:37:07 3 VO2 TRIATHLON
5 DIDIER damien FRA A16388C0280251MV1FRA 101 3 VE1 M 02:23:49 00:19:41 16 00:00:30 2 01:25:56 10 00:00:30 4 00:37:14 4 TRP
6 PIERSON Luc FRA A22462C0140370MS1FRA 56 1 SE1 M 02:26:07 00:18:40 5 00:00:56 15 01:26:10 12 00:00:48 30 00:39:35 9 MONTPELLIER AGGLOMERATION TRIATH
7 JORRY Sébastien FRA A66325C0140397MS2FRA 6 2 SE2 M 02:27:52 00:19:11 10 00:01:25 45 01:23:00 3 00:00:47 27 00:43:32 31 ASPH Castries Cycles
8 ABRIAL Guilhem FRA A15926C0280246MS3FRA 66 2 SE3 M 02:28:24 00:19:08 9 00:01:33 56 01:26:18 13 00:00:47 25 00:40:41 14 TCVD
9 BISCARRAT FREDERIC FRA A19054C0260302MV1FRA 94 4 VE1 M 02:28:34 00:19:30 13 00:01:15 36 01:26:08 11 00:00:43 17 00:40:59 16 TRIATHLON MANOSQUE
10 BENOIT vincent FRA A21595C 19 5 VE1 M 02:29:15 00:20:51 27 00:01:02 21 01:24:04 5 00:00:46 24 00:42:34 24 CROCOS D'AIRAIN NIMES TRIATHLON
11 GACHON Aurelien FRA A15890C 98 3 SE2 M 02:29:27 00:20:52 29 00:00:30 3 01:27:25 16 00:00:35 8 00:40:06 12 TRICASTIN TRIATHLON CLUB
12 ALAZARD Fabien FRA
111 3 SE3 M 02:29:35 00:22:34 52 00:00:30 1 01:24:39 8 00:00:57 53 00:40:56 15 Non licencié
13 GRELIER Jean-Philippe FRA 0280245MV3FRA 99 1 VE3 M 02:29:59 00:22:06 45 00:01:15 37 01:24:23 6 00:00:41 16 00:41:37 18 TRICASTIN TRIATHLON CLUB
14 GUERIN Jean Claude FRA A22398c 45 6 VE1 M 02:30:34 00:20:47 26 00:00:53 13 01:26:20 14 00:00:48 29 00:41:48 19 MAUGUIO CARNON TRIATHLON
15 MORGAT Rolland FRA A61099C0260281MV1FRA 11 7 VE1 M 02:30:50 00:22:24 50 00:01:01 18 01:24:33 7 00:00:30 6 00:42:23 22 AVIGNON LE PONTET TRIATHLON
16 ROMEY Gerome FRA A43221C0280064MS4FRA 128 1 SE4 M 02:30:54 00:19:23 11 00:01:38 63 01:25:14 9 00:00:53 44 00:43:47 33 Non licencié
17 LAUNAY Grégoire FRA 0070175MS3FRA 36 4 SE3 M 02:31:06 00:20:19 21 00:01:50 76 01:29:29 20 00:00:51 40 00:38:39 6 FREE IRON TEAM
18 DANIEL Nicolas FRA A47251C0130019MS1FRA 118 2 SE1 M 02:31:45 00:19:49 18 00:01:24 42 01:29:48 21 00:00:47 26 00:39:59 11 Non licencié
19 TORAL Manuel FRA A16234C 8 5 SE3 M 02:34:24 00:21:22 36 00:01:05 25 01:32:05 24 00:00:40 13 00:39:13 7 AUBENAS TRIATHLON
20 MAUREL Alexis FRA 0140370MS1FRA 55 3 SE1 M 02:35:39 00:21:37 39 00:01:06 26 01:27:15 15 00:00:40 12 00:45:03 41 MONTPELLIER AGGLOMERATION TRIATH
21 PLACE bruno FRA A15798C0280245MV2FRA 100 1 VE2 M 02:35:50 00:21:54 43 00:00:30 6 01:29:21 19 00:00:44 19 00:43:23 28 TRICASTIN TRIATHLON CLUB
22 BERTRAND Matthieu FRA
113 4 SE2 M 02:36:05 00:22:15 47 00:02:05 85 01:33:18 30 00:00:29 1 00:38:00 5 Non licencié
23 VLAEMYNCK hervé FRA 0140392MV4FRA 16 1 VE4 M 02:36:14 00:18:55 7 00:00:55 14 01:31:11 22 00:00:49 33 00:44:27 38 CEVENNES ENDURANCE
24 VIDAL-SANZ FABRICE FRA A22210C0140378MV2FRA 80 2 VE2 M 02:36:56 00:21:02 33 00:01:20 38 01:32:20 26 00:00:52 42 00:41:25 17 TRI CLUB BEAUCAIRE TARASCON
25 WEINGARTNER Sébastien FRA
136 2 SE4 M 02:37:03 00:19:45 17 00:01:26 47 01:32:21 27 00:01:17 95 00:42:16 21 Non licencié
26 PEYSSON franck FRA a57710c0130055ms4fra 14 3 SE4 M 02:37:08 00:19:37 15 00:01:39 64 01:34:57 39 00:01:12 83 00:39:46 10 BOUYGUES TRIATHLON
27 FIOL Olivier FRA A19587C0260319MV2FRA 47 3 VE2 M 02:38:39 00:21:38 40 00:01:09 29 01:31:48 23 00:01:00 60 00:43:07 26 MJC TRIATHLON PLAN DE CUQUES
28 LALANNE David FRA 0140394mv1fra 78 8 VE1 M 02:39:18 00:20:36 25 00:01:24 44 01:33:15 29 00:01:09 78 00:42:56 25 TREBES TRIATHLON
29 ROGIER Kevin FRA A57930C0260286MS1FRA 86 4 SE1 M 02:40:37 00:20:10 20 00:01:25 46 01:33:05 28 00:01:12 84 00:44:47 39 TRI CLUB ISLE SUR LA SORGUE
30 DI MAIO Romain FRA A22044C 38 5 SE1 M 02:40:40 00:17:57 2 00:00:50 12 01:37:41 54 00:00:57 54 00:43:17 27 GRANDE MOTTE TRIATHLON
31 VENIER JEAN-BAPTISTE FRA A14221C0280228MV1FRA 5 9 VE1 M 02:42:33 00:21:01 32 00:01:30 53 01:38:09 57 00:01:17 96 00:40:37 13 ASMSE TRI 42
32 JACQUOT jean-charles FRA A22565C0140393MV2FRA 42 4 VE2 M 02:43:18 00:19:04 8 00:01:24 43 01:38:43 60 00:00:46 23 00:43:24 29 LOUPIAN TRI NATURE
33 BOUISSON LUC FRA A20798C0090340MV3FRA 74 2 VE3 M 02:43:44 00:19:33 14 00:00:57 16 01:34:11 34 00:00:43 18 00:48:21 59 TOULON TRIATHLON
34 LACHEVRE Matthieu FRA 0140374MS4FRA 3 4 SE4 M 02:43:59 00:21:13 34 00:01:12 34 01:33:31 32 00:01:04 69 00:47:01 45 AS VILLENEUVE TRIATHLON
35 SALGUES Guillaume FRA A60754C0260294MS2FRA 89 5 SE2 M 02:44:32 00:20:52 28 00:01:05 24 01:37:58 55 00:00:54 50 00:43:45 32 TRIATH'AIX
36 APESTEGUY MICHEL FRA A17660C0260281MV2FRA 9 5 VE2 M 02:44:33 00:22:18 48 00:01:20 39 01:34:43 38 00:01:04 68 00:45:10 43 AVIGNON LE PONTET TRIATHLON
37 DEBLAISE Laurent FRA A19001C0260286MV1FRA 82 10 VE1 M 02:44:53 00:24:15 65 00:02:33 106 01:34:43 37 00:01:14 90 00:42:09 20 TRI CLUB ISLE SUR LA SORGUE
38 DI VINCENZO Christophe FRA A71835C0140370MS3FRA 53 6 SE3 M 02:45:48 00:20:55 30 00:01:46 73 01:37:15 51 00:00:49 35 00:45:04 42 MONTPELLIER AGGLOMERATION TRIATH
39 FALAIS Alexandre FRA A72959C 69 6 SE2 M 02:46:53 00:24:37 72 00:01:41 66 01:35:18 40 00:01:02 67 00:44:17 34 TOBESPORT
40 DELORME Fabrice FRA A61943C0140395MV1FRA 60 11 VE1 M 02:46:55 00:26:55 99 00:02:35 107 01:32:15 25 00:00:54 51 00:44:18 35 SALINDRES TRIATHLON
41 BISCHOFF Armin FRA A31209C0260281MV3DEU 10 3 VE3 M 02:47:34 00:21:20 35 00:01:08 27 01:35:45 43 00:01:06 74 00:48:17 58 AVIGNON LE PONTET TRIATHLON
42 PARROSSEL Florent FRA A72900C0140378MS2FRA 79 7 SE2 M 02:47:51 00:23:06 59 00:02:28 101 01:33:44 33 00:01:00 59 00:47:36 49 TRI CLUB BEAUCAIRE TARASCON
43 BAUBRIER Pierre FRA A71556C 43 6 SE1 M 02:48:29 00:23:02 58 00:01:32 55 01:34:12 35 00:01:19 101 00:48:25 61 MAUGUIO CARNON TRIATHLON
44 RUIZ FLORENT FRA A53260C0140395MS3FRA 62 7 SE3 M 02:48:36 00:22:30 51 00:01:29 50 01:35:52 44 00:00:50 37 00:47:57 57 SALINDRES TRIATHLON
45 BELLICAUD THIERRY FRA a66429c 31 6 VE2 M 02:48:39 00:25:31 84 00:01:33 57 01:38:03 56 00:01:04 71 00:42:30 23 EMBRUN TRIATHLON CLUB
46 JEANTARD caril FRA A60664C 77 12 VE1 M 02:48:50 00:22:20 49 00:01:42 67 01:37:14 50 00:01:02 65 00:46:35 44 TOULON TRIATHLON
47 CAMPANA René FRA A10835C0070175MV4FRA 35 2 VE4 M 02:49:03 00:22:51 55 00:01:01 19 01:36:22 45 00:00:56 52 00:47:54 56 FREE IRON TEAM
48 CHEVALIER Rémi FRA A59895C0140367MS1FRA 57 7 SE1 M 02:49:15 00:21:26 38 00:01:11 33 01:35:24 41 00:00:41 15 00:50:34 76 NIMES TRIATHLON
49 TOLLERON Yves-Robert FRA A58017C0280256MV4FRA 68 3 VE4 M 02:49:58 00:30:03 121 00:01:13 35 01:33:23 31 00:00:54 48 00:44:26 37 TEAM MERMILLOD TRIATHLON
50 ARCHAMBAULT Gilles FRA A21799C0140370MV4FRA 51 4 VE4 M 02:50:13 00:22:42 53 00:01:05 23 01:34:25 36 00:00:53 46 00:51:11 82 MONTPELLIER AGGLOMERATION TRIATH
51 MASSEBEUF Denis FRA A62881C0140395MV2FRA 61 7 VE2 M 02:50:31 00:22:57 56 00:01:34 58 01:37:08 49 00:01:04 70 00:47:50 54 SALINDRES TRIATHLON
52 ALTEYRAC Laurent FRA A57782C0260298MV1FRA 137 13 VE1 M 02:50:51 00:21:53 42 00:01:10 32 01:36:43 46 00:01:01 62 00:50:06 72 AUBAGNE TRIATHLON
53 CAMUS Christian FRA A61839C0140372MV3FRA 37 4 VE3 M 02:51:14 00:22:10 46 00:01:26 48 01:36:56 47 00:01:23 103 00:49:20 68 GRANDE MOTTE TRIATHLON
54 JAKUBCZYK Steven FRA A50848C0140390MS2FRA 107 8 SE2 M 02:51:36 00:23:00 57 00:01:46 72 01:35:41 42 00:00:53 47 00:50:18 75 VO2 TRIATHLON
55 DELIGNE jean manuel FRA 2100076951 46 5 SE4 M 02:52:17 00:26:39 96 00:01:29 49 01:38:29 58 00:00:53 43 00:44:49 40 MCT
56 DE MARCO sandrine FRA A21591C 23 1 SE4 F 02:52:20 00:21:00 31 00:01:03 22 01:41:06 75 00:00:46 22 00:48:26 62 CROCOS D'AIRAIN NIMES TRIATHLON
57 CHEVREUIL MATHIEU FRA A21488C0140366MS4FRA 2 6 SE4 M 02:52:59 00:25:57 93 00:00:49 11 01:29:18 18 00:01:01 63 00:55:56 103 AMICALE SPORTIVE TRIATHLON CATAL
58 DUMEY jean-marc FRA A20756C0090340MV3FRA 76 5 VE3 M 02:53:55 00:20:09 19 00:01:36 62 01:38:47 61 00:01:13 88 00:52:12 90 TOULON TRIATHLON
59 CEDAT BERRUS Nathaly FRA A21620C0140367FV3FRA 21 1 VE3 F 02:54:02 00:24:16 66 00:01:35 61 01:40:21 73 00:00:49 32 00:47:03 46 CROCOS D'AIRAIN NIMES TRIATHLON
60 GOUILLART Sylvain FRA A19585C0260319MV1FRA 48 14 VE1 M 02:55:02 00:24:19 67 00:01:30 52 01:38:38 59 00:01:13 87 00:49:24 69 MJC TRIATHLON PLAN DE CUQUES
61 DEVOS Paul RSA
119 7 SE4 M 02:56:21 00:20:20 22 00:01:56 82 01:42:01 77 00:01:48 117 00:50:18 74 Non licencié
62 LE CHAPELAIN GILLES FRA 0230582MV4FRA 70 5 VE4 M 02:56:29 00:25:08 75 00:01:08 28 01:39:17 65 00:00:49 31 00:50:10 73 TOBESPORT
63 BADI Farid FRA 0140373MV3FRA 110 6 VE3 M 02:57:02 00:26:59 101 00:02:15 92 01:43:18 83 00:01:07 75 00:43:25 30 WAIMEA TRI LUNEL
64 ETALIS Patrick FRA A18908C0260298MV5FRA 7 1 VE5 M 02:57:23 00:24:31 69 00:01:09 30 01:40:05 71 00:00:50 36 00:50:50 80 AUBAGNE TRIATHLON
65 MOURAD Marc FRA
124 8 SE3 M 02:57:41 00:23:29 61 00:03:13 125 01:39:53 68 00:01:55 120 00:49:13 67 Non licencié
66 REVY Frédéric FRA 008013MV2FRA 135 8 VE2 M 02:57:45 00:25:34 85 00:00:58 17 01:37:31 52 00:00:47 28 00:52:58 95 TOBESPORT
67 CLAIR Christian FRA A61397C0090340MS4FRA 75 8 SE4 M 02:57:53 00:25:52 90 00:01:54 80 01:38:49 62 00:00:45 21 00:50:34 77 TOULON TRIATHLON
68 DAL CERRO Jerome FRA A60995C0140395MV1FRA 59 15 VE1 M 02:57:53 00:27:18 106 00:02:21 96 01:38:55 63 00:00:51 39 00:48:31 63 SALINDRES TRIATHLON
69 BRETON Anthony FRA A59494C 134 9 SE4 M 02:58:16 00:26:24 95 00:01:09 31 01:45:48 95 00:00:38 11 00:44:19 36 CROCOS D'AIRAIN NIMES TRIATHLON
70 GODMER Caroline FRA A18199C 83 1 VE2 F 02:58:50 00:20:29 23 00:01:44 70 01:44:01 88 00:00:58 58 00:51:39 85 TRI CLUB ISLE SUR LA SORGUE
71 SIRVENT Loic FRA A32867C 73 9 SE3 M 02:59:23 00:22:50 54 00:02:12 90 01:42:19 79 00:00:54 49 00:51:10 81 TOBESPORT
72 BERRUS Chris FRA A21618C0140367MV4FRA 20 6 VE4 M 02:59:54 00:24:42 73 00:02:44 114 01:37:32 53 00:01:10 81 00:53:48 97 CROCOS D'AIRAIN NIMES TRIATHLON
73 ROCHETTE laurent FRA A59680C 29 16 VE1 M 03:00:07 00:24:31 70 00:02:11 89 01:41:28 76 00:01:14 91 00:50:44 78 CROCOS D'AIRAIN NIMES TRIATHLON
74 CORSOIS laurent FRA A62551C0260299MV1FRA 32 17 VE1 M 03:00:34 00:26:54 98 00:02:13 91 01:42:18 78 00:01:18 99 00:47:52 55 EMBRUN TRIATHLON CLUB
75 LABALME Stéphane FRA A22426C0140389MV2FRA 87 9 VE2 M 03:00:37 00:24:31 71 00:02:25 99 01:45:10 92 00:01:29 108 00:47:03 47 TRI OX
76 ORTUS jean-jacques FRA A49801C 18 7 VE3 M 03:01:10 00:27:08 103 00:00:30 5 01:45:25 93 00:00:30 7 00:47:38 50 CHAMEAUX BEZIERS
77 GUEYDON alain FRA A19582C 49 8 VE3 M 03:01:41 00:27:35 111 00:01:49 74 01:37:05 48 00:01:52 118 00:53:21 96 MJC TRIATHLON PLAN DE CUQUES
78 POUDEVIGNE gauthier FRA
126 10 SE4 M 03:01:54 00:25:19 79 00:01:31 54 01:44:20 89 00:00:45 20 00:50:00 71 Non licencié
79 ANTIPHON Paul FRA
4 18 VE1 M 03:03:01 00:25:55 92 00:02:57 122 01:40:31 74 00:01:56 121 00:51:45 86 ASM
80 SOUCHARD fabrice FRA A56748C0280246MS2FRA 93 9 SE2 M 03:03:09 00:27:25 108 00:02:22 97 01:42:49 82 00:01:24 105 00:49:11 66 TRIATHLON CLUB DU VAL DE DROME
81 DARDIER CHRISTOPHE FRA A21907C0140371MV1FRA 91 19 VE1 M 03:03:18 00:23:43 62 00:01:50 75 01:39:29 67 00:01:55 119 00:56:23 105 TRIATHLON CLUB CARCASSONNAIS
82 MERAT Pascal FRA A01858C 30 7 VE4 M 03:03:41 00:23:14 60 00:02:33 105 01:39:22 66 00:01:18 97 00:57:16 109 DRAVEIL TRIATHLON 2000
83 CAIREL CHARLES FRA A66600 52 11 SE4 M 03:03:55 00:29:23 117 00:02:44 113 01:38:58 64 00:01:24 106 00:51:28 84 MONTPELLIER AGGLOMERATION TRIATH
84 FOURREAU Grégory FRA A22390C0140387MS4FRA 44 12 SE4 M 03:05:10 00:21:41 41 00:01:35 60 01:43:56 86 00:01:10 80 00:56:50 106 MAUGUIO CARNON TRIATHLON
85 BLACHON frederic FRA A46354C0280251MS4FRA 95 13 SE4 M 03:05:28 00:25:18 78 00:01:29 51 01:45:10 91 00:00:51 41 00:52:41 93 TRIATHLON ROMANAIS PEAGEOIS
86 CORNET Gilles FRA A22374C0140384MV2FRA 41 10 VE2 M 03:05:51 00:31:44 126 00:04:16 128 01:40:01 70 00:02:05 126 00:47:47 53 LANGOGNE TRIATHLON
87 SABATIER Luc FRA
129 9 VE3 M 03:05:51 00:31:44 127 00:04:17 129 01:40:00 69 00:02:05 125 00:47:47 51 Non licencié
88 SAMMARTANO david FRA 210001622 12 20 VE1 M 03:06:20 00:27:29 109 00:02:45 115 01:45:08 90 00:01:16 94 00:49:45 70 BABYSUN/TRI34
89 NARANJO Horacio FRA A65800C0260286MV1FRA 85 21 VE1 M 03:07:01 00:26:39 97 00:02:20 94 01:42:34 80 00:01:10 79 00:54:20 98 TRI CLUB ISLE SUR LA SORGUE
90 CHAMBON Philippe FRA A21614C0140367MV3FRA 22 10 VE3 M 03:07:55 00:24:30 68 00:02:08 88 01:45:44 94 00:00:30 3 00:55:04 100 CROCOS D'AIRAIN NIMES TRIATHLON
91 ROUCHY JEAN MARC FRA A66669C 50 11 VE2 M 03:08:11 00:29:06 116 00:02:32 102 01:42:42 81 00:01:31 110 00:52:23 91 MJC TRIATHLON PLAN DE CUQUES
92 GRAIL LAVERNEDE willy FRA A424117C 121 22 VE1 M 03:08:43 00:25:24 82 00:02:07 87 01:40:14 72 00:01:02 66 00:59:59 115 Non licencié
93 LAONET Alain FRA A17820C0260282MV2FRA 104 12 VE2 M 03:08:49 00:30:30 124 00:01:44 69 01:47:26 102 00:01:23 104 00:47:47 52 VITROLLES TRIATHLON
94 PARY Christophe FRA A63361C 97 11 VE3 M 03:09:22 00:27:42 113 00:02:40 112 01:47:19 101 00:00:57 56 00:50:46 79 TRIATHLON ST REMY LES CHEVREUSE
95 VIDALINC Guillaume FRA
131 14 SE4 M 03:09:37 00:27:23 107 00:02:40 111 01:50:06 104 00:01:05 73 00:48:25 60 Non licencié
96 BOYER Laurent FRA A50391C0260289MV1FRA 65 23 VE1 M 03:10:05 00:30:58 125 00:02:05 86 01:46:36 99 00:01:19 100 00:49:08 65 SPRINTER CLUB ALESIEN
97 DEVAUX jean-michel FRA 0260283MV1FRA 63 24 VE1 M 03:10:39 00:25:34 86 00:02:52 118 01:43:26 84 00:01:33 113 00:57:15 108 SALON TRIATHLON
98 MONTRIEUL Maud FRA A46317C 39 1 VE1 F 03:10:49 00:23:58 63 00:02:21 95 01:51:18 106 00:01:15 92 00:52:00 88 GRANDE MOTTE TRIATHLON
99 KEIREL bertrand FRA
122 25 VE1 M 03:11:10 00:29:33 118 00:02:49 117 01:43:29 85 00:01:01 64 00:54:21 99 Non licencié
100 TORREILLES FRANCOIS FRA A72102C0140390MV2FRA 109 13 VE2 M 03:11:29 00:25:21 81 00:02:39 110 01:46:16 96 00:01:18 98 00:55:57 104 VO2 TRIATHLON
101 MAJAL julie FRA A70943C 92 2 SE4 F 03:11:43 00:27:09 104 00:02:04 84 01:52:43 108 00:01:10 82 00:48:38 64 TRIATHLON CLUB DU VAL DE DROME
102 CANO Yann FRA
115 14 VE2 M 03:13:28 00:24:59 74 00:02:38 109 01:49:16 103 00:01:09 77 00:55:29 102 Non licencié
103 ANDREAUX David FRA A60356C 90 26 VE1 M 03:13:57 00:19:28 12 00:01:22 40 01:53:16 110 00:01:22 102 00:58:31 114 TRIATHLON CLUB CARCASSONNAIS
104 DUCROS olivier FRA A21585C0140367MV1FRA 24 27 VE1 M 03:14:10 00:22:05 44 00:01:35 59 01:43:57 87 00:01:05 72 01:05:31 122 CROCOS D'AIRAIN NIMES TRIATHLON
105 PHELOUZAT Pierre-Julien FRA A72814C0080013MS4FRA 72 15 SE4 M 03:14:25 00:25:17 77 00:02:58 123 01:53:12 109 00:01:14 89 00:51:45 87 TOBESPORT
106 PEZOT Pierre FRA A67967C0140390MS4FRA 108 16 SE4 M 03:15:15 00:27:14 105 00:02:54 120 01:50:26 105 00:02:34 128 00:52:08 89 VO2 TRIATHLON
107 JOST jean paul FRA 0140034mv4fra 64 8 VE4 M 03:16:36 00:27:51 114 00:02:33 104 01:46:19 97 00:01:45 115 00:58:10 113 SETE THAU TRIATHLON
108 DUFLOS Matthieu FRA
120 10 SE2 M 03:18:04 00:25:40 88 00:02:16 93 01:55:01 113 00:02:15 127 00:52:55 94 Non licencié
109 MALLET Thibaut FRA A59520C0140367MV1FRA 26 28 VE1 M 03:19:12 00:25:49 89 00:03:02 124 01:53:48 111 00:01:30 109 00:55:05 101 CROCOS D'AIRAIN NIMES TRIATHLON
110 OCTAU Gilles FRA A56031C0140392MV4FRA 15 9 VE4 M 03:19:16 00:25:14 76 00:02:25 100 01:46:25 98 00:01:33 112 01:03:40 120 CEVENNES ENDURANCE
111 DEVELAY NELLY FRA A46156C0040658FS3FRA 17 1 SE3 F 03:20:34 00:30:24 123 00:01:53 79 01:55:36 114 00:01:16 93 00:51:27 83 CHALON TRIATHLON
112 MOUCHET chantal FRA A21593C 28 2 VE2 F 03:20:43 00:26:21 94 00:02:01 83 01:58:35 119 00:01:12 86 00:52:36 92 CROCOS D'AIRAIN NIMES TRIATHLON
113 MASLEN Robert GBR E1031537 123 1 VE6 M 03:21:38 00:30:03 120 00:01:42 68 01:46:57 100 00:01:12 85 01:01:46 117 Non licencié
114 HAUDRY Françoise FRA A16841C0280256FV5FRA 67 1 VE5 F 03:22:34 00:24:15 64 00:01:53 78 01:58:12 118 00:01:08 76 00:57:08 107 TEAM MERMILLOD TRIATHLON
115 GRIGUER Florence FRA A65813C0140390FV1FRA 106 2 VE1 F 03:22:35 00:27:06 102 00:02:45 116 02:04:41 124 00:00:49 34 00:47:16 48 VO2 TRIATHLON
116 BILLION Amber BEL 04661F92 114 1 SE1 F 03:23:24 00:21:26 37 00:01:02 20 02:02:05 121 00:00:57 57 00:57:56 112 Non licencié
117 MARCHAND CLEMENCE FRA A09274C0240151FS2FRA 13 1 SE2 F 03:26:46 00:25:21 80 00:00:44 9 01:54:32 112 00:00:57 55 01:05:13 121 BEAUVAIS TRIATHLON
118 LOISELEUR stéphane FRA A32845C0230582MV2FRA 71 15 VE2 M 03:27:03 00:20:31 24 00:01:45 71 01:56:08 116 00:01:47 116 01:06:54 125 TOBESPORT
119 RICOME Romain FRA
127 11 SE2 M 03:29:33 00:34:41 128 00:03:20 126 01:51:54 107 00:02:01 123 00:57:38 111 Non licencié
120 ROUSSEL Romain FRA A59292C 133 12 SE2 M 03:33:16 00:25:38 87 00:02:37 108 02:03:11 122 00:00:53 45 01:00:58 116 CROCOS D'AIRAIN NIMES TRIATHLON
121 BALADIER Jérôme FRA A22122C 132 1 JU M 03:35:43 00:25:26 83 00:01:52 77 01:57:49 117 00:00:51 38 01:09:48 127 ALES TRIATHLON
122 BLACHON marjorie FRA A46356C0280251FSS4FRA 96 3 SE4 F 03:36:37 00:26:57 100 00:01:56 81 01:59:28 120 00:01:01 61 01:07:17 126 TRIATHLON ROMANAIS PEAGEOIS
123 MONDET Laurent FRA A21631C 138 16 VE2 M 03:37:40 00:27:37 112 00:01:40 65 01:55:59 115 00:02:05 124 01:10:22 128 NIMES TRIATHLON
124 CHADWICK Neil GBR 1055169 116 2 VE5 M 03:45:03 00:38:22 129 00:02:53 119 02:04:24 123 00:01:59 122 00:57:27 110 Non licencié
125 BARDERA Regis FRA
112 29 VE1 M 03:47:09 00:25:53 91 00:02:55 121 02:06:29 125 00:01:32 111 01:10:22 129 Non licencié
126 SANCHEZ VIVIANE FRA
130 3 VE2 F 03:47:25 00:30:14 122 00:02:23 98 02:08:52 126 00:02:51 129 01:03:07 119 Non licencié
127 COULLET Laurent FRA
117 13 SE2 M 03:54:29 00:29:36 119 00:02:32 103 02:15:49 127 00:00:37 10 01:05:57 123 Non licencié
128 BREGENT nathalie FRA A17894C 102 3 VE1 F 03:58:22 00:27:31 110 00:01:22 41 02:21:46 128 00:01:26 107 01:06:19 124 VITROLLES TRIATHLON
129 MARTINEZ Sébastien FRA A61257C 58 10 SE3 M 04:11:16 00:28:53 115 00:03:46 127 02:34:23 129 00:01:39 114 01:02:37 118 SAINT PRIEST TRIATHLON